createdAt,value
2023-05-08T00:00:10.184Z,61.12
2023-05-08T00:02:37.052Z,61.33
2023-05-08T00:05:03.985Z,61.89
2023-05-08T00:07:30.786Z,62.05
2023-05-08T00:09:57.610Z,62.60
2023-05-08T00:12:24.316Z,62.47
2023-05-08T00:14:50.941Z,63.23
2023-05-08T00:17:17.656Z,63.32
2023-05-08T00:19:44.253Z,63.47
2023-05-08T00:22:11.129Z,63.62
2023-05-08T00:24:37.762Z,64.63
2023-05-08T00:27:04.450Z,64.14
2023-05-08T00:29:31.198Z,64.32
2023-05-08T00:31:57.875Z,64.42
2023-05-08T00:34:24.515Z,64.59
2023-05-08T00:36:51.171Z,64.77
2023-05-08T00:39:18.485Z,65.64
2023-05-08T00:41:45.405Z,65.50
2023-05-08T00:44:12.011Z,65.23
2023-05-08T00:46:39.417Z,65.33
2023-05-08T00:49:06.783Z,65.13
2023-05-08T00:51:34.074Z,64.94
2023-05-08T00:54:00.849Z,64.66
2023-05-08T00:56:28.418Z,64.47
2023-05-08T00:58:55.327Z,64.46
2023-05-08T01:01:22.697Z,64.15
2023-05-08T01:03:49.793Z,64.21
2023-05-08T01:06:16.933Z,64.65
2023-05-08T01:08:46.684Z,64.61
2023-05-08T01:11:13.332Z,64.42
2023-05-08T01:14:02.861Z,64.26
2023-05-08T01:16:45.511Z,64.11
2023-05-08T01:19:40.900Z,64.31
2023-05-08T01:22:29.782Z,64.62
2023-05-08T01:25:27.193Z,64.68
2023-05-08T01:28:02.485Z,65.06
2023-05-08T01:30:32.077Z,65.62
2023-05-08T01:33:17.281Z,65.56
2023-05-08T01:35:51.871Z,65.49
2023-05-08T01:38:37.654Z,65.39
2023-05-08T01:41:12.039Z,65.27
2023-05-08T01:43:52.209Z,65.16
2023-05-08T01:46:24.146Z,64.87
2023-05-08T01:49:12.647Z,64.53
2023-05-08T01:51:44.811Z,64.50
2023-05-08T01:54:16.409Z,64.70
2023-05-08T01:56:45.374Z,64.71
2023-05-08T01:59:17.065Z,65.20
2023-05-08T02:01:46.131Z,65.61
2023-05-08T02:04:16.257Z,66.27
2023-05-08T02:06:43.800Z,66.51
2023-05-08T02:09:12.549Z,66.62
2023-05-08T02:11:42.427Z,66.63
2023-05-08T02:14:11.615Z,66.69
2023-05-08T02:16:40.452Z,66.99
2023-05-08T02:19:08.449Z,67.62
2023-05-08T02:21:36.921Z,67.49
2023-05-08T02:24:04.612Z,67.52
2023-05-08T02:26:32.710Z,67.66
2023-05-08T02:29:02.294Z,67.60
2023-05-08T02:31:30.400Z,67.39
2023-05-08T02:33:59.595Z,67.24
2023-05-08T02:36:28.888Z,67.23
2023-05-08T02:38:58.870Z,66.98
2023-05-08T02:41:29.776Z,66.59
2023-05-08T02:43:57.044Z,66.63
2023-05-08T02:47:07.302Z,66.42
2023-05-08T02:50:03.674Z,66.25
2023-05-08T02:52:37.948Z,65.92
2023-05-08T02:55:27.320Z,65.95
2023-05-08T02:58:32.576Z,65.60
2023-05-08T03:01:24.385Z,65.64
2023-05-08T03:04:07.742Z,65.63
2023-05-08T03:06:40.262Z,65.68
2023-05-08T03:09:12.474Z,65.90
2023-05-08T03:11:42.416Z,65.63
2023-05-08T03:14:12.621Z,65.93
2023-05-08T03:16:42.890Z,65.97
2023-05-08T03:19:23.095Z,65.75
2023-05-08T03:21:51.846Z,66.17
2023-05-08T03:24:20.375Z,66.55
2023-05-08T03:26:47.717Z,67.09
2023-05-08T03:29:15.649Z,67.07
2023-05-08T03:31:44.597Z,67.53
2023-05-08T03:34:13.527Z,67.31
2023-05-08T03:36:40.863Z,67.18
2023-05-08T03:39:08.124Z,67.38
2023-05-08T03:41:34.952Z,67.31
2023-05-08T03:44:03.677Z,67.64
2023-05-08T03:46:35.715Z,67.78
2023-05-08T03:49:06.040Z,67.81
2023-05-08T03:51:33.225Z,67.65
2023-05-08T03:54:00.013Z,67.61
2023-05-08T03:56:28.085Z,67.50
2023-05-08T03:59:17.666Z,67.44
2023-05-08T04:01:53.956Z,67.17
2023-05-08T04:04:39.974Z,67.26
2023-05-08T04:07:11.454Z,67.12
2023-05-08T04:09:51.590Z,67.07
2023-05-08T04:12:22.351Z,66.50
2023-05-08T04:15:11.656Z,66.63
2023-05-08T04:17:44.123Z,66.45
2023-05-08T04:20:16.566Z,66.85
2023-05-08T04:22:46.206Z,66.47
2023-05-08T04:25:16.462Z,66.20
2023-05-08T04:27:45.242Z,66.36
2023-05-08T04:30:13.378Z,66.53
2023-05-08T04:32:42.321Z,66.86
2023-05-08T04:35:13.281Z,66.66
2023-05-08T04:37:42.050Z,66.43
2023-05-08T04:40:10.512Z,66.12
2023-05-08T04:42:39.456Z,66.39
2023-05-08T04:45:06.931Z,66.21
2023-05-08T04:47:33.690Z,66.06
2023-05-08T04:50:02.751Z,66.23
2023-05-08T04:52:31.236Z,66.25
2023-05-08T04:54:57.979Z,66.25
2023-05-08T04:57:24.576Z,66.00
2023-05-08T04:59:51.518Z,66.03
2023-05-08T05:02:18.472Z,66.35
2023-05-08T05:04:46.614Z,66.18
2023-05-08T05:07:14.042Z,65.93
2023-05-08T05:09:41.019Z,65.96
2023-05-08T05:12:08.124Z,65.58
2023-05-08T05:14:35.564Z,65.31
2023-05-08T05:17:02.360Z,65.26
2023-05-08T05:19:29.402Z,65.60
2023-05-08T05:21:56.289Z,65.61
2023-05-08T05:24:23.123Z,65.04
2023-05-08T05:26:49.853Z,64.42
2023-05-08T05:29:16.928Z,64.42
2023-05-08T05:31:43.826Z,64.43
2023-05-08T05:34:10.788Z,64.46
2023-05-08T05:36:37.488Z,64.10
2023-05-08T05:39:04.650Z,64.26
2023-05-08T05:41:32.513Z,64.00
2023-05-08T05:43:59.209Z,64.47
2023-05-08T05:46:32.197Z,64.02
2023-05-08T05:49:01.216Z,64.25
2023-05-08T05:51:29.375Z,64.59
2023-05-08T05:53:57.137Z,64.74
2023-05-08T05:56:24.722Z,64.68
2023-05-08T05:58:51.708Z,64.99
2023-05-08T06:01:18.405Z,64.97
2023-05-08T06:03:45.154Z,65.02
2023-05-08T06:06:12.450Z,65.12
2023-05-08T06:08:39.280Z,64.70
2023-05-08T06:11:05.988Z,65.04
2023-05-08T06:13:32.907Z,64.81
2023-05-08T06:16:00.311Z,64.50
2023-05-08T06:18:27.003Z,64.34
2023-05-08T06:21:00.118Z,63.78
2023-05-08T06:23:27.072Z,63.44
2023-05-08T06:25:54.197Z,63.41
2023-05-08T06:28:22.448Z,62.99
2023-05-08T06:30:49.274Z,62.72
2023-05-08T06:33:15.959Z,62.58
2023-05-08T06:35:46.440Z,62.33
2023-05-08T06:38:13.812Z,62.24
2023-05-08T06:40:46.584Z,62.50
2023-05-08T06:43:13.469Z,62.73
2023-05-08T06:45:40.569Z,62.85
2023-05-08T06:48:07.551Z,63.00
2023-05-08T06:50:37.198Z,63.67
2023-05-08T06:53:03.887Z,63.88
2023-05-08T06:55:30.596Z,64.30
2023-05-08T06:57:57.254Z,64.63
2023-05-08T07:00:24.179Z,64.22
2023-05-08T07:02:51.714Z,64.66
2023-05-08T07:05:19.915Z,65.07
2023-05-08T07:07:46.738Z,65.64
2023-05-08T07:10:13.408Z,65.67
2023-05-08T07:12:40.872Z,66.18
2023-05-08T07:15:24.148Z,66.59
2023-05-08T07:17:51.869Z,66.11
2023-05-08T07:20:18.524Z,66.42
2023-05-08T07:22:45.141Z,65.54
2023-05-08T07:25:12.992Z,65.16
2023-05-08T07:27:39.900Z,65.06
2023-05-08T07:30:07.282Z,65.64
2023-05-08T07:32:34.127Z,65.42
2023-05-08T07:35:02.782Z,65.16
2023-05-08T07:37:29.600Z,64.65
2023-05-08T07:39:56.245Z,64.56
2023-05-08T07:42:23.199Z,64.00
2023-05-08T07:44:54.883Z,64.30
2023-05-08T07:47:22.597Z,63.91
2023-05-08T07:49:49.425Z,63.66
2023-05-08T07:52:16.768Z,63.49
2023-05-08T07:54:43.721Z,62.16
2023-05-08T07:57:11.110Z,62.30
2023-05-08T07:59:37.707Z,62.47
2023-05-08T08:02:04.368Z,61.53
2023-05-08T08:04:31.117Z,62.07
2023-05-08T08:06:57.830Z,62.54
2023-05-08T08:09:24.567Z,62.59
2023-05-08T08:11:51.284Z,61.57
2023-05-08T08:14:17.986Z,60.66
2023-05-08T08:16:44.679Z,60.47
2023-05-08T08:19:11.369Z,59.83
2023-05-08T08:21:43.214Z,58.78
2023-05-08T08:24:10.130Z,58.58
2023-05-08T08:26:36.977Z,58.30
2023-05-08T08:29:03.852Z,58.96
2023-05-08T08:31:30.628Z,58.25
2023-05-08T08:33:57.612Z,57.59
2023-05-08T08:36:24.259Z,56.93
2023-05-08T08:38:50.869Z,55.66
2023-05-08T08:41:17.653Z,54.99
2023-05-08T08:43:44.334Z,54.47
2023-05-08T08:46:15.510Z,52.10
2023-05-08T08:48:45.402Z,49.52
2023-05-08T08:51:25.501Z,45.09
2023-05-08T08:54:00.678Z,41.81
2023-05-08T08:56:28.853Z,38.08
2023-05-08T08:58:59.226Z,34.79
2023-05-08T09:01:29.242Z,33.42
2023-05-08T09:03:59.814Z,30.90
2023-05-08T09:06:27.585Z,28.46
2023-05-08T09:08:58.454Z,26.89
2023-05-08T09:11:25.767Z,27.29
2023-05-08T09:13:52.557Z,29.04
2023-05-08T09:16:19.345Z,29.68
2023-05-08T09:18:46.045Z,30.18
2023-05-08T09:21:13.003Z,31.16
2023-05-08T09:24:00.160Z,31.49
2023-05-08T09:26:32.690Z,33.17
2023-05-08T09:29:09.737Z,35.11
2023-05-08T09:31:39.727Z,36.13
2023-05-08T09:34:11.201Z,37.76
2023-05-08T09:36:40.619Z,38.02
2023-05-08T09:39:14.248Z,40.38
2023-05-08T09:42:00.181Z,41.67
2023-05-08T09:44:27.225Z,41.80
2023-05-08T09:47:14.140Z,43.12
2023-05-08T09:50:16.805Z,42.59
2023-05-08T09:52:47.941Z,42.54
2023-05-08T09:55:15.011Z,41.99
2023-05-08T09:57:53.815Z,38.51
2023-05-08T10:00:21.042Z,38.34
2023-05-08T10:03:02.334Z,39.16
2023-05-08T10:05:32.234Z,37.92
2023-05-08T10:08:21.283Z,36.23
2023-05-08T10:10:48.097Z,34.35
2023-05-08T10:13:15.306Z,33.76
2023-05-08T10:15:43.405Z,35.47
2023-05-08T10:18:12.198Z,36.72
2023-05-08T10:20:44.197Z,36.79
2023-05-08T10:23:16.840Z,39.39
2023-05-08T10:25:46.191Z,40.42
2023-05-08T10:28:28.074Z,41.75
2023-05-08T10:30:59.731Z,42.87
2023-05-08T10:33:31.376Z,43.85
2023-05-08T10:35:58.998Z,44.36
2023-05-08T10:38:25.976Z,45.73
2023-05-08T10:40:57.741Z,45.57
2023-05-08T10:43:25.444Z,46.47
2023-05-08T10:45:53.672Z,45.49
2023-05-08T10:48:32.631Z,42.37
2023-05-08T10:51:17.905Z,40.99
2023-05-08T10:53:50.933Z,37.78
2023-05-08T10:56:17.634Z,35.71
2023-05-08T10:58:44.223Z,33.45
2023-05-08T11:01:12.061Z,33.41
2023-05-08T11:03:44.818Z,32.61
2023-05-08T11:06:12.529Z,31.01
2023-05-08T11:08:48.768Z,31.73
2023-05-08T11:11:34.175Z,32.50
2023-05-08T11:14:07.068Z,32.60
2023-05-08T11:16:56.414Z,33.47
2023-05-08T11:19:25.082Z,34.55
2023-05-08T11:22:10.988Z,35.01
2023-05-08T11:24:39.378Z,35.75
2023-05-08T11:27:06.169Z,36.86
2023-05-08T11:29:33.170Z,36.96
2023-05-08T11:32:00.283Z,36.76
2023-05-08T11:34:42.661Z,37.46
2023-05-08T11:37:11.212Z,38.48
2023-05-08T11:39:38.171Z,38.70
2023-05-08T11:42:27.072Z,39.17
2023-05-08T11:45:13.200Z,39.95
2023-05-08T11:47:42.654Z,40.57
2023-05-08T11:50:11.615Z,42.05
2023-05-08T11:52:41.272Z,42.02
2023-05-08T11:55:10.145Z,42.85
2023-05-08T11:57:37.082Z,42.86
2023-05-08T12:00:12.020Z,42.78
2023-05-08T12:02:40.008Z,42.91
2023-05-08T12:05:08.077Z,42.54
2023-05-08T12:07:47.914Z,43.58
2023-05-08T12:10:16.022Z,42.89
2023-05-08T12:12:45.005Z,43.44
2023-05-08T12:15:14.384Z,42.46
2023-05-08T12:17:42.084Z,42.57
2023-05-08T12:20:14.337Z,42.24
2023-05-08T12:22:42.521Z,42.51
2023-05-08T12:25:11.945Z,43.41
2023-05-08T12:27:38.927Z,42.75
2023-05-08T12:30:10.926Z,43.42
2023-05-08T12:32:40.057Z,42.28
2023-05-08T12:35:08.742Z,41.13
2023-05-08T12:37:36.635Z,42.48
2023-05-08T12:40:04.852Z,43.32
2023-05-08T12:42:49.911Z,43.06
2023-05-08T12:45:25.604Z,42.69
2023-05-08T12:47:53.837Z,41.94
2023-05-08T12:50:21.847Z,41.98
2023-05-08T12:52:51.142Z,41.79
2023-05-08T12:55:25.806Z,41.28
2023-05-08T12:57:59.671Z,40.95
2023-05-08T13:00:39.737Z,40.04
2023-05-08T13:03:08.459Z,40.07
2023-05-08T13:05:37.457Z,39.85
2023-05-08T13:08:11.931Z,39.30
2023-05-08T13:10:47.736Z,39.84
2023-05-08T13:13:15.947Z,39.54
2023-05-08T13:15:43.184Z,38.46
2023-05-08T13:18:10.274Z,39.22
2023-05-08T13:20:37.989Z,39.42
2023-05-08T13:23:05.363Z,38.99
2023-05-08T13:25:33.062Z,38.80
2023-05-08T13:28:00.298Z,38.65
2023-05-08T13:30:27.311Z,39.02
2023-05-08T13:32:54.550Z,38.53
2023-05-08T13:35:21.786Z,38.45
2023-05-08T13:37:49.337Z,38.69
2023-05-08T13:40:16.468Z,39.83
2023-05-08T13:42:43.470Z,39.38
2023-05-08T13:45:10.855Z,40.78
2023-05-08T13:47:37.619Z,40.08
2023-05-08T13:50:04.549Z,40.02
2023-05-08T13:52:31.168Z,40.68
2023-05-08T13:54:58.305Z,40.73
2023-05-08T13:57:25.047Z,40.71
2023-05-08T13:59:51.816Z,39.93
2023-05-08T14:02:18.548Z,40.53
2023-05-08T14:04:45.249Z,40.45
2023-05-08T14:07:11.952Z,41.17
2023-05-08T14:09:38.620Z,39.99
2023-05-08T14:12:05.502Z,39.85
2023-05-08T14:14:33.136Z,39.97
2023-05-08T14:17:01.125Z,38.84
2023-05-08T14:19:27.799Z,38.33
2023-05-08T14:21:54.576Z,39.45
2023-05-08T14:24:21.280Z,40.13
2023-05-08T14:26:48.290Z,40.95
2023-05-08T14:29:15.493Z,41.79
2023-05-08T14:31:42.266Z,41.58
2023-05-08T14:34:08.966Z,42.05
2023-05-08T14:36:35.576Z,41.55
2023-05-08T14:39:03.117Z,41.47
2023-05-08T14:41:30.714Z,42.40
2023-05-08T14:43:57.842Z,44.20
2023-05-08T14:46:25.122Z,46.34
2023-05-08T14:48:51.796Z,46.64
2023-05-08T14:51:21.049Z,48.14
2023-05-08T14:53:47.830Z,48.79
2023-05-08T14:56:14.848Z,49.21
2023-05-08T14:58:41.610Z,51.08
2023-05-08T15:01:08.239Z,52.91
2023-05-08T15:03:35.011Z,56.50
2023-05-08T15:06:02.264Z,57.41
2023-05-08T15:08:28.995Z,58.90
2023-05-08T15:10:56.053Z,59.62
2023-05-08T15:13:22.798Z,57.88
2023-05-08T15:15:49.571Z,59.52
2023-05-08T15:18:16.356Z,60.03
2023-05-08T15:20:43.018Z,59.79
2023-05-08T15:23:10.078Z,60.38
2023-05-08T15:25:36.795Z,59.83
2023-05-08T15:28:03.618Z,60.61
2023-05-08T15:30:30.455Z,61.58
2023-05-08T15:32:57.171Z,62.50
2023-05-08T15:35:23.847Z,64.98
2023-05-08T15:37:50.702Z,63.96
2023-05-08T15:40:17.408Z,63.15
2023-05-08T15:42:44.076Z,63.29
2023-05-08T15:45:10.808Z,63.96
2023-05-08T15:47:37.469Z,63.13
2023-05-08T15:50:04.402Z,63.51
2023-05-08T15:52:31.028Z,64.64
2023-05-08T15:54:57.728Z,65.32
2023-05-08T15:57:26.943Z,64.97
2023-05-08T15:59:53.621Z,66.90
2023-05-08T16:02:20.449Z,65.62
2023-05-08T16:04:47.168Z,68.72
2023-05-08T16:07:13.941Z,66.50
2023-05-08T16:09:40.633Z,64.86
2023-05-08T16:12:07.454Z,64.59
2023-05-08T16:14:35.468Z,65.53
2023-05-08T16:17:03.096Z,65.57
2023-05-08T16:19:29.861Z,64.15
2023-05-08T16:21:56.605Z,64.92
2023-05-08T16:24:23.307Z,66.86
2023-05-08T16:26:49.886Z,64.88
2023-05-08T16:29:16.505Z,64.30
2023-05-08T16:31:43.176Z,65.69
2023-05-08T16:34:09.870Z,64.78
2023-05-08T16:36:36.752Z,63.74
2023-05-08T16:39:03.542Z,62.56
2023-05-08T16:41:30.214Z,62.80
2023-05-08T16:43:56.816Z,63.15
2023-05-08T16:46:30.101Z,64.16
2023-05-08T16:48:57.728Z,64.17
2023-05-08T16:51:24.451Z,64.43
2023-05-08T16:53:51.226Z,64.41
2023-05-08T16:56:18.102Z,64.44
2023-05-08T16:58:44.770Z,64.36
2023-05-08T17:01:11.748Z,64.67
2023-05-08T17:03:38.626Z,63.85
2023-05-08T17:06:09.189Z,64.09
2023-05-08T17:08:35.820Z,63.55
2023-05-08T17:11:02.551Z,63.13
2023-05-08T17:13:29.329Z,62.79
2023-05-08T17:15:56.291Z,63.47
2023-05-08T17:18:22.958Z,63.52
2023-05-08T17:20:50.841Z,62.71
2023-05-08T17:23:17.546Z,63.00
2023-05-08T17:25:44.224Z,62.99
2023-05-08T17:28:13.929Z,62.96
2023-05-08T17:30:40.567Z,63.24
2023-05-08T17:33:07.377Z,64.02
2023-05-08T17:35:34.236Z,63.92
2023-05-08T17:38:00.911Z,63.51
2023-05-08T17:40:28.859Z,63.53
2023-05-08T17:42:55.683Z,63.17
2023-05-08T17:45:22.343Z,62.85
2023-05-08T17:47:49.073Z,63.13
2023-05-08T17:50:15.965Z,63.46
2023-05-08T17:52:42.725Z,63.52
2023-05-08T17:55:10.202Z,64.14
2023-05-08T17:57:36.934Z,64.34
2023-05-08T18:00:05.061Z,64.07
2023-05-08T18:02:35.428Z,63.90
2023-05-08T18:05:02.186Z,63.45
2023-05-08T18:07:29.054Z,63.33
2023-05-08T18:09:55.835Z,63.24
2023-05-08T18:12:22.775Z,64.08
2023-05-08T18:14:49.423Z,63.33
2023-05-08T18:17:19.166Z,64.19
2023-05-08T18:19:46.326Z,64.41
2023-05-08T18:22:13.033Z,64.04
2023-05-08T18:24:39.642Z,64.30
2023-05-08T18:27:06.392Z,63.56
2023-05-08T18:29:33.063Z,63.92
2023-05-08T18:31:59.660Z,65.35
2023-05-08T18:34:26.360Z,64.93
2023-05-08T18:36:54.198Z,65.50
2023-05-08T18:39:22.099Z,65.09
2023-05-08T18:41:48.780Z,64.36
2023-05-08T18:44:15.558Z,64.07
2023-05-08T18:46:42.462Z,64.13
2023-05-08T18:49:09.205Z,63.99
2023-05-08T18:51:36.079Z,64.66
2023-05-08T18:54:02.699Z,65.39
2023-05-08T18:56:29.427Z,65.16
2023-05-08T18:58:56.343Z,65.71
2023-05-08T19:01:23.728Z,65.72
2023-05-08T19:03:50.669Z,65.83
2023-05-08T19:06:17.362Z,65.83
2023-05-08T19:08:44.537Z,66.41
2023-05-08T19:11:11.324Z,66.58
2023-05-08T19:13:38.398Z,67.22
2023-05-08T19:16:05.636Z,66.84
2023-05-08T19:18:32.309Z,66.42
2023-05-08T19:20:59.001Z,66.69
2023-05-08T19:23:25.646Z,67.04
2023-05-08T19:25:52.811Z,67.51
2023-05-08T19:28:19.646Z,67.82
2023-05-08T19:30:46.903Z,67.64
2023-05-08T19:33:13.645Z,67.18
2023-05-08T19:35:40.341Z,67.52
2023-05-08T19:38:07.003Z,66.88
2023-05-08T19:40:44.557Z,67.35
2023-05-08T19:43:19.092Z,67.19
2023-05-08T19:45:45.794Z,67.37
2023-05-08T19:48:18.039Z,66.80
2023-05-08T19:50:45.060Z,66.98
2023-05-08T19:53:11.868Z,66.70
2023-05-08T19:55:38.615Z,66.96
2023-05-08T19:58:05.207Z,67.22
2023-05-08T20:00:31.917Z,67.58
2023-05-08T20:02:58.760Z,67.55
2023-05-08T20:05:25.670Z,67.05
2023-05-08T20:07:52.290Z,67.33
2023-05-08T20:10:19.093Z,67.42
2023-05-08T20:12:45.781Z,67.61
2023-05-08T20:15:12.673Z,67.17
2023-05-08T20:17:39.421Z,67.40
2023-05-08T20:20:06.787Z,67.63
2023-05-08T20:22:33.476Z,67.62
2023-05-08T20:25:01.566Z,67.33
2023-05-08T20:27:30.438Z,67.02
2023-05-08T20:29:57.255Z,67.36
2023-05-08T20:32:24.125Z,67.59
2023-05-08T20:34:50.746Z,67.52
2023-05-08T20:37:17.472Z,67.33
2023-05-08T20:39:45.004Z,67.12
2023-05-08T20:42:11.865Z,66.76
2023-05-08T20:44:38.608Z,67.14
2023-05-08T20:47:05.354Z,66.49
2023-05-08T20:49:32.047Z,67.19
2023-05-08T20:51:58.766Z,67.19
2023-05-08T20:54:25.539Z,66.99
2023-05-08T20:56:52.223Z,67.45
2023-05-08T20:59:18.989Z,66.97
2023-05-08T21:01:47.198Z,66.15
2023-05-08T21:04:13.918Z,66.42
2023-05-08T21:06:40.580Z,66.37
2023-05-08T21:09:07.337Z,66.18
2023-05-08T21:11:34.172Z,65.66
2023-05-08T21:14:00.900Z,65.78
2023-05-08T21:16:27.548Z,65.70
2023-05-08T21:18:55.492Z,66.06
2023-05-08T21:21:24.106Z,66.03
2023-05-08T21:23:50.702Z,65.39
2023-05-08T21:26:19.726Z,65.91
2023-05-08T21:28:46.439Z,66.58
2023-05-08T21:31:13.210Z,66.20
2023-05-08T21:33:39.868Z,66.55
2023-05-08T21:36:06.717Z,66.61
2023-05-08T21:38:34.068Z,66.57
2023-05-08T21:41:10.929Z,66.27
2023-05-08T21:43:37.592Z,66.44
2023-05-08T21:46:05.228Z,66.09
2023-05-08T21:48:32.030Z,66.45
2023-05-08T21:50:59.145Z,65.94
2023-05-08T21:53:25.996Z,66.74
2023-05-08T21:55:52.692Z,66.46
2023-05-08T21:58:19.550Z,66.62
2023-05-08T22:00:46.362Z,66.66
2023-05-08T22:03:13.143Z,67.30
2023-05-08T22:05:39.858Z,67.95
2023-05-08T22:08:06.461Z,68.27
2023-05-08T22:10:33.055Z,68.08
2023-05-08T22:13:01.344Z,67.53
2023-05-08T22:15:30.728Z,67.68
2023-05-08T22:17:58.794Z,67.74
2023-05-08T22:20:25.740Z,67.12
2023-05-08T22:22:52.400Z,67.70
2023-05-08T22:25:19.447Z,67.67
2023-05-08T22:27:46.377Z,68.15
2023-05-08T22:30:13.580Z,67.77
2023-05-08T22:32:40.378Z,67.43
2023-05-08T22:35:07.162Z,67.43
2023-05-08T22:37:33.733Z,67.73
2023-05-08T22:40:00.362Z,67.76
2023-05-08T22:42:27.027Z,67.98
2023-05-08T22:44:54.803Z,68.11
2023-05-08T22:47:21.577Z,67.77
2023-05-08T22:49:48.735Z,67.54
2023-05-08T22:52:15.385Z,67.64
2023-05-08T22:54:42.087Z,67.47
2023-05-08T22:57:08.782Z,68.06
2023-05-08T22:59:36.334Z,67.78
2023-05-08T23:02:02.991Z,67.84
2023-05-08T23:04:29.649Z,67.77
2023-05-08T23:06:56.589Z,68.21
2023-05-08T23:09:23.623Z,68.33
2023-05-08T23:11:50.325Z,67.86
2023-05-08T23:14:16.993Z,67.65
2023-05-08T23:16:43.668Z,67.87
2023-05-08T23:19:10.498Z,67.74
2023-05-08T23:21:37.216Z,67.26
2023-05-08T23:24:04.804Z,66.99
2023-05-08T23:26:31.516Z,66.97
2023-05-08T23:28:58.244Z,67.24
2023-05-08T23:31:24.929Z,67.40
2023-05-08T23:33:51.671Z,67.46
2023-05-08T23:36:18.390Z,67.59
2023-05-08T23:38:45.109Z,68.30
2023-05-08T23:41:12.111Z,68.75
2023-05-08T23:43:39.061Z,68.35
2023-05-08T23:46:06.443Z,68.40
2023-05-08T23:48:33.173Z,68.91
2023-05-08T23:50:59.796Z,68.45
2023-05-08T23:53:26.427Z,68.54
2023-05-08T23:55:53.116Z,68.42
2023-05-08T23:58:19.760Z,68.89
